Endeavor — PHCH — position and weather

sailwx.info

Track history (hours):
 
Tides and Currents Weather Stations Pressure Air Temp Water Temp Dewpoint Dewpoint Depression Visibility Wind Speed Wind Dir Waves Ship Positions

Endeavor

Last reported at 2018-Feb-21 20:28 UTC. Time now 2018-Feb-21 20:43 UTC.
Position N 43°21' W 003°03'.

Length 136 m; draft 6.6 m.

Type: Ship (hazmat cat A). MMSI: 245222000.

Date/timePositionNaut miles runAvg speedWind from/ knotsBaromVisibWave heightAir tempDewpointWater temp
2018-Feb-21 20:28N 43°21' W 003°03'0 0.0
2018-Feb-21 19:58N 43°21' W 003°03'0 0.0
2018-Feb-21 19:28N 43°21' W 003°03'0 0.0
2018-Feb-21 18:58N 43°21' W 003°03'0 0.0
2018-Feb-21 18:28N 43°21' W 003°03'0 0.0
2018-Feb-21 17:58N 43°21' W 003°03'0 0.0
2018-Feb-21 17:28N 43°21' W 003°03'0 0.0
2018-Feb-21 16:58N 43°21' W 003°03'0 0.0
2018-Feb-21 16:28N 43°21' W 003°03'0 0.0
2018-Feb-21 15:58N 43°21' W 003°03'0 0.0
2018-Feb-21 15:28N 43°21' W 003°03'0 0.0
2018-Feb-21 14:58N 43°21' W 003°03'0 0.0
2018-Feb-21 14:28N 43°21' W 003°03'0 0.0
2018-Feb-21 13:58N 43°21' W 003°03'0 0.0
2018-Feb-21 13:28N 43°21' W 003°03'0 0.0
2018-Feb-21 12:58N 43°21' W 003°03'0 0.0
2018-Feb-21 12:28N 43°21' W 003°03'0 0.0
2018-Feb-21 11:58N 43°21' W 003°03'0 0.0
2018-Feb-21 11:16N 43°21' W 003°03'0 0.0
2018-Feb-21 10:58N 43°21' W 003°03'0 0.0
2018-Feb-21 10:28N 43°21' W 003°03'0 0.0
2018-Feb-21 09:58N 43°21' W 003°03'0 0.0
2018-Feb-21 09:28N 43°21' W 003°03'0 0.0
2018-Feb-21 08:52N 43°21' W 003°03'0 0.0
2018-Feb-21 08:28N 43°21' W 003°03'0 0.0
2018-Feb-21 07:58N 43°21' W 003°03'0 0.0
2018-Feb-21 07:28N 43°21' W 003°03'0 0.0
2018-Feb-21 06:58N 43°21' W 003°03'0 0.0
2018-Feb-21 06:28N 43°21' W 003°03'0 0.0
2018-Feb-21 06:00N 43°21' W 003°03'0 0.6
2018-Feb-21 05:31N 43°21' W 003°03'5 9.9
2018-Feb-21 05:01N 43°25' W 003°06'815.3
2018-Feb-21 04:29N 43°33' W 003°10'715.4
2018-Feb-21 04:01N 43°39' W 003°14'25415.5
2018-Feb-20 11:36N 47°36' W 005°27'816.5
2018-Feb-20 11:06N 47°44' W 005°31'216.7
2018-Feb-20 10:59N 47°46' W 005°32'916.9
2018-Feb-20 10:27N 47°54' W 005°37'917.0
2018-Feb-20 09:57N 48°02' W 005°42'1316.9
2018-Feb-20 09:09N 48°14' W 005°50'14815.4
2018-Feb-19 23:34N 50°42' W 006°02'816.2
2018-Feb-19 23:04N 50°50' W 006°01'116.1
2018-Feb-19 23:00N 50°51' W 006°01'7215.2
2018-Feb-19 18:13N 52°04' W 005°52'416.7
2018-Feb-19 18:01N 52°07' W 005°51'1317.6
2018-Feb-19 17:15N 52°20' W 005°47'418.2
2018-Feb-19 17:00N 52°25' W 005°46'1918.5
2018-Feb-19 15:58N 52°43' W 005°40'818.6
2018-Feb-19 15:30N 52°52' W 005°37'918.4
2018-Feb-19 15:00N 53°01' W 005°34'1018.0
2018-Feb-19 14:27N 53°11' W 005°32'6015.5
2018-Feb-19 10:33N 54°11' W 005°22'115.4
2018-Feb-19 10:30N 54°11' W 005°22'815.6
2018-Feb-19 10:01N 54°19' W 005°20'816.1
2018-Feb-19 09:31N 54°27' W 005°19'816.3
2018-Feb-19 09:01N 54°35' W 005°18'816.6
2018-Feb-19 08:30N 54°44' W 005°18'816.0
2018-Feb-19 08:01N 54°52' W 005°18'5215.2
2018-Feb-19 04:34N 55°43' W 004°59'116.0
2018-Feb-19 04:31N 55°44' W 004°59'714.7
2018-Feb-19 04:01N 55°51' W 004°57'815.1
2018-Feb-19 03:31N 55°58' W 004°51'2 0.1
2018-Feb-18 08:01N 55°58' W 004°47'0 9.4
2018-Feb-18 07:59N 55°58' W 004°48'611.6
2018-Feb-18 07:31N 55°54' W 004°55'714.4
2018-Feb-18 07:01N 55°47' W 004°58'612.1
2018-Feb-18 06:31N 55°41' W 004°59'4911.3
2018-Feb-18 02:11N 54°53' W 005°15'213.2
2018-Feb-18 02:00N 54°51' W 005°14'713.6
2018-Feb-18 01:31N 54°44' W 005°11'713.6
2018-Feb-18 01:00N 54°38' W 005°08'713.5
2018-Feb-18 00:30N 54°31' W 005°05'712.9
2018-Feb-18 00:00N 54°25' W 005°02'613.0
2018-Feb-17 23:30N 54°19' W 004°59'612.6
2018-Feb-17 23:00N 54°13' W 004°57'5410.7
2018-Feb-17 17:56N 53°36' W 003°48'512.5
2018-Feb-17 17:30N 53°34' W 003°40'713.1
2018-Feb-17 17:00N 53°33' W 003°29'713.2
2018-Feb-17 16:30N 53°32' W 003°18'510.0
2018-Feb-17 16:00N 53°32' W 003°10'713.8
2018-Feb-17 15:30N 53°27' W 003°02'0 0.6
2018-Feb-17 15:00N 53°27' W 003°01'0 0.7
2018-Feb-17 14:30N 53°27' W 003°01'0 0.6
2018-Feb-17 14:00N 53°28' W 003°01'0 0.0
2018-Feb-17 13:28N 53°28' W 003°01'0 0.0
2018-Feb-17 12:58N 53°28' W 003°02'0 0.0
2018-Feb-17 12:28N 53°28' W 003°02'0 0.0
2018-Feb-17 11:58N 53°28' W 003°02'0 0.0
2018-Feb-17 11:28N 53°28' W 003°01'0 0.0
2018-Feb-17 10:58N 53°28' W 003°01'0 0.0
2018-Feb-17 10:28N 53°28' W 003°01'0 0.0
2018-Feb-17 09:55N 53°28' W 003°01'0 0.0
2018-Feb-17 09:28N 53°28' W 003°01'0 0.0
2018-Feb-17 08:58N 53°28' W 003°02'0 0.0
2018-Feb-17 08:28N 53°28' W 003°02'0 0.0
2018-Feb-17 07:58N 53°28' W 003°02'0 0.0
2018-Feb-17 07:28N 53°28' W 003°02'0 0.0
2018-Feb-17 06:58N 53°28' W 003°02'0 0.0
2018-Feb-17 06:28N 53°28' W 003°02'0 0.0
2018-Feb-17 05:52N 53°28' W 003°01'0 0.0
2018-Feb-17 05:28N 53°28' W 003°01'0 0.0
2018-Feb-17 04:55N 53°28' W 003°01'0 0.0
2018-Feb-17 04:28N 53°28' W 003°02'0 0.0
2018-Feb-17 03:58N 53°28' W 003°01'0 0.0
2018-Feb-17 03:28N 53°28' W 003°02'0 0.0
2018-Feb-17 02:58N 53°28' W 003°01'0 0.0
2018-Feb-17 02:28N 53°28' W 003°02'0 0.0
2018-Feb-17 01:58N 53°28' W 003°02'0 0.0
2018-Feb-17 01:25N 53°28' W 003°02'0 0.0
2018-Feb-17 00:52N 53°28' W 003°02'0 0.0
2018-Feb-17 00:28N 53°28' W 003°02'0 0.0
2018-Feb-16 23:58N 53°28' W 003°02'0 0.0
2018-Feb-16 23:28N 53°28' W 003°02'0 0.0
2018-Feb-16 22:55N 53°28' W 003°02'0 0.0
2018-Feb-16 22:28N 53°28' W 003°01'0 0.0
2018-Feb-16 21:58N 53°28' W 003°01'0 0.0
2018-Feb-16 21:28N 53°28' W 003°01'0 0.0
2018-Feb-16 20:58N 53°28' W 003°02'0 0.0
2018-Feb-16 20:28N 53°28' W 003°01'0 0.0
2018-Feb-16 19:58N 53°28' W 003°02'0 0.0
2018-Feb-16 19:28N 53°28' W 003°02'0 0.0
2018-Feb-16 18:58N 53°28' W 003°02'0 0.0
2018-Feb-16 18:28N 53°28' W 003°02'0 0.0
2018-Feb-16 17:58N 53°28' W 003°01'0 0.0
2018-Feb-16 17:28N 53°28' W 003°02'0 0.0
2018-Feb-16 16:58N 53°28' W 003°01'0 0.0
2018-Feb-16 16:19N 53°28' W 003°02'0 0.0
2018-Feb-16 15:58N 53°28' W 003°01'0 0.0
2018-Feb-16 15:28N 53°28' W 003°02'0 0.0
2018-Feb-16 14:58N 53°28' W 003°02'0 0.0
2018-Feb-16 14:28N 53°28' W 003°02'0 0.0
2018-Feb-16 13:58N 53°28' W 003°02'0 0.0
2018-Feb-16 13:29N 53°28' W 003°02'0 0.8
2018-Feb-16 13:00N 53°27' W 003°01'0 0.4
2018-Feb-16 12:29N 53°27' W 003°01'0 0.4
2018-Feb-16 12:00N 53°27' W 003°01'0 0.5
2018-Feb-16 11:30N 53°27' W 003°02'3 6.3
2018-Feb-16 10:59N 53°29' W 003°05'611.6
2018-Feb-16 10:30N 53°31' W 003°14'4 8.9
2018-Feb-16 10:01N 53°32' W 003°21'3 6.2
2018-Feb-16 09:30N 53°31' W 003°27'4 8.7
2018-Feb-16 09:00N 53°31' W 003°34'510.2
2018-Feb-16 08:30N 53°30' W 003°43'510.4
2018-Feb-16 08:00N 53°28' W 003°50'172 6.7
2018-Feb-15 06:22N 50°53' W 005°53'2515.3
2018-Feb-15 04:44N 50°28' W 005°54'415.3
2018-Feb-15 04:30N 50°24' W 005°54'815.7
2018-Feb-15 04:00N 50°17' W 005°54'10715.6
2018-Feb-14 21:10N 48°30' W 005°58'314.6
2018-Feb-14 20:58N 48°27' W 005°56'714.5
2018-Feb-14 20:29N 48°21' W 005°52'714.2
2018-Feb-14 20:00N 48°14' W 005°49'814.2
2018-Feb-14 19:28N 48°07' W 005°45'2414.1
2018-Feb-14 17:45N 47°45' W 005°31'25714.2
2018-Feb-13 23:36N 43°45' W 003°19'213.8
2018-Feb-13 23:30N 43°43' W 003°18'713.7
2018-Feb-13 22:59N 43°37' W 003°15'613.2
2018-Feb-13 22:30N 43°31' W 003°11'713.4
2018-Feb-13 22:00N 43°25' W 003°06'510.2
2018-Feb-13 21:30N 43°21' W 003°03'0 0.6
2018-Feb-13 20:57N 43°21' W 003°03'0 0.0
2018-Feb-13 20:30N 43°21' W 003°03'0 0.0
2018-Feb-13 19:57N 43°21' W 003°03'0 0.0
2018-Feb-13 19:30N 43°21' W 003°03'0 0.0
2018-Feb-13 19:00N 43°21' W 003°03'0 0.0
2018-Feb-13 18:30N 43°21' W 003°03'0 0.0
2018-Feb-13 18:00N 43°21' W 003°03'0 0.0
2018-Feb-13 17:30N 43°21' W 003°03'0 0.0
2018-Feb-13 17:00N 43°21' W 003°03'0 0.0
2018-Feb-13 16:30N 43°21' W 003°03'0 0.0
2018-Feb-13 16:00N 43°21' W 003°03'0 0.0
2018-Feb-13 15:30N 43°21' W 003°03'0 0.0
2018-Feb-13 14:57N 43°21' W 003°03'0 0.0
2018-Feb-13 14:27N 43°21' W 003°03'0 0.0
2018-Feb-13 14:00N 43°21' W 003°03'0 0.0
2018-Feb-13 13:30N 43°21' W 003°03'0 0.0
2018-Feb-13 13:00N 43°21' W 003°03'0 0.0
2018-Feb-13 12:30N 43°21' W 003°03'0 0.0
2018-Feb-13 12:00N 43°21' W 003°03'0 0.0
2018-Feb-13 11:30N 43°21' W 003°03'0 0.0
2018-Feb-13 11:00N 43°21' W 003°03'0 0.0
2018-Feb-13 10:27N 43°21' W 003°03'0 0.0
2018-Feb-13 10:00N 43°21' W 003°03'0 0.0
2018-Feb-13 09:30N 43°21' W 003°03'0 0.0
2018-Feb-13 09:00N 43°21' W 003°03'0 0.0
2018-Feb-13 08:30N 43°21' W 003°03'0 0.0
2018-Feb-13 08:00N 43°21' W 003°03'0 0.0
2018-Feb-13 07:30N 43°21' W 003°03'0 0.0
2018-Feb-13 07:00N 43°21' W 003°03'0 0.0
2018-Feb-13 06:29N 43°21' W 003°03'0 0.0
2018-Feb-13 05:59N 43°21' W 003°03'0 0.0
2018-Feb-13 05:29N 43°21' W 003°03'0 0.0
2018-Feb-13 04:59N 43°21' W 003°03'0 0.0
2018-Feb-13 04:29N 43°21' W 003°03'0 0.0
2018-Feb-13 03:59N 43°21' W 003°03'0 0.0
2018-Feb-13 03:29N 43°21' W 003°03'0 0.0
2018-Feb-13 02:59N 43°21' W 003°03'0 0.0
2018-Feb-13 02:29N 43°21' W 003°03'1 1.2
2018-Feb-13 02:00N 43°21' W 003°03'510.0
2018-Feb-13 01:30N 43°26' W 003°06'914.1
2018-Feb-13 00:54N 43°34' W 003°10'614.2
2018-Feb-13 00:30N 43°39' W 003°13'26814.6
2018-Feb-12 06:05N 47°48' W 005°34'215.2
2018-Feb-12 05:58N 47°50' W 005°36'1415.3
2018-Feb-12 05:04N 48°03' W 005°43'515.1
2018-Feb-12 04:46N 48°07' W 005°45'615.1
2018-Feb-12 04:23N 48°13' W 005°48'  
Track history (hours):
 
Tides and Currents Weather Stations Pressure Air Temp Water Temp Dewpoint Dewpoint Depression Visibility Wind Speed Wind Dir Waves Ship Positions

Endeavor

Last reported at 2018-Feb-21 20:28 UTC. Time now 2018-Feb-21 20:43 UTC.
Position N 43°21' W 003°03'.

Length 136 m; draft 6.6 m.

Type: Ship (hazmat cat A). MMSI: 245222000.

Date/timePositionNaut miles runAvg speedWind from/ knotsBaromVisibWave heightAir tempDewpointWater temp
2018-Feb-21 20:28N 43°21' W 003°03'0 0.0
2018-Feb-21 19:58N 43°21' W 003°03'0 0.0
2018-Feb-21 19:28N 43°21' W 003°03'0 0.0
2018-Feb-21 18:58N 43°21' W 003°03'0 0.0
2018-Feb-21 18:28N 43°21' W 003°03'0 0.0
2018-Feb-21 17:58N 43°21' W 003°03'0 0.0
2018-Feb-21 17:28N 43°21' W 003°03'0 0.0
2018-Feb-21 16:58N 43°21' W 003°03'0 0.0
2018-Feb-21 16:28N 43°21' W 003°03'0 0.0
2018-Feb-21 15:58N 43°21' W 003°03'0 0.0
2018-Feb-21 15:28N 43°21' W 003°03'0 0.0
2018-Feb-21 14:58N 43°21' W 003°03'0 0.0
2018-Feb-21 14:28N 43°21' W 003°03'0 0.0
2018-Feb-21 13:58N 43°21' W 003°03'0 0.0
2018-Feb-21 13:28N 43°21' W 003°03'0 0.0
2018-Feb-21 12:58N 43°21' W 003°03'0 0.0
2018-Feb-21 12:28N 43°21' W 003°03'0 0.0
2018-Feb-21 11:58N 43°21' W 003°03'0 0.0
2018-Feb-21 11:16N 43°21' W 003°03'0 0.0
2018-Feb-21 10:58N 43°21' W 003°03'0 0.0
2018-Feb-21 10:28N 43°21' W 003°03'0 0.0
2018-Feb-21 09:58N 43°21' W 003°03'0 0.0
2018-Feb-21 09:28N 43°21' W 003°03'0 0.0
2018-Feb-21 08:52N 43°21' W 003°03'0 0.0
2018-Feb-21 08:28N 43°21' W 003°03'0 0.0
2018-Feb-21 07:58N 43°21' W 003°03'0 0.0
2018-Feb-21 07:28N 43°21' W 003°03'0 0.0
2018-Feb-21 06:58N 43°21' W 003°03'0 0.0
2018-Feb-21 06:28N 43°21' W 003°03'0 0.0
2018-Feb-21 06:00N 43°21' W 003°03'0 0.6
2018-Feb-21 05:31N 43°21' W 003°03'5 9.9
2018-Feb-21 05:01N 43°25' W 003°06'815.3
2018-Feb-21 04:29N 43°33' W 003°10'715.4
2018-Feb-21 04:01N 43°39' W 003°14'25415.5
2018-Feb-20 11:36N 47°36' W 005°27'816.5
2018-Feb-20 11:06N 47°44' W 005°31'216.7
2018-Feb-20 10:59N 47°46' W 005°32'916.9
2018-Feb-20 10:27N 47°54' W 005°37'917.0
2018-Feb-20 09:57N 48°02' W 005°42'1316.9
2018-Feb-20 09:09N 48°14' W 005°50'14815.4
2018-Feb-19 23:34N 50°42' W 006°02'816.2
2018-Feb-19 23:04N 50°50' W 006°01'116.1
2018-Feb-19 23:00N 50°51' W 006°01'7215.2
2018-Feb-19 18:13N 52°04' W 005°52'416.7
2018-Feb-19 18:01N 52°07' W 005°51'1317.6
2018-Feb-19 17:15N 52°20' W 005°47'418.2
2018-Feb-19 17:00N 52°25' W 005°46'1918.5
2018-Feb-19 15:58N 52°43' W 005°40'818.6
2018-Feb-19 15:30N 52°52' W 005°37'918.4
2018-Feb-19 15:00N 53°01' W 005°34'1018.0
2018-Feb-19 14:27N 53°11' W 005°32'6015.5
2018-Feb-19 10:33N 54°11' W 005°22'115.4
2018-Feb-19 10:30N 54°11' W 005°22'815.6
2018-Feb-19 10:01N 54°19' W 005°20'816.1
2018-Feb-19 09:31N 54°27' W 005°19'816.3
2018-Feb-19 09:01N 54°35' W 005°18'816.6
2018-Feb-19 08:30N 54°44' W 005°18'816.0
2018-Feb-19 08:01N 54°52' W 005°18'5215.2
2018-Feb-19 04:34N 55°43' W 004°59'116.0
2018-Feb-19 04:31N 55°44' W 004°59'714.7
2018-Feb-19 04:01N 55°51' W 004°57'815.1
2018-Feb-19 03:31N 55°58' W 004°51'2 0.1
2018-Feb-18 08:01N 55°58' W 004°47'0 9.4
2018-Feb-18 07:59N 55°58' W 004°48'611.6
2018-Feb-18 07:31N 55°54' W 004°55'714.4
2018-Feb-18 07:01N 55°47' W 004°58'612.1
2018-Feb-18 06:31N 55°41' W 004°59'4911.3
2018-Feb-18 02:11N 54°53' W 005°15'213.2
2018-Feb-18 02:00N 54°51' W 005°14'713.6
2018-Feb-18 01:31N 54°44' W 005°11'713.6
2018-Feb-18 01:00N 54°38' W 005°08'713.5
2018-Feb-18 00:30N 54°31' W 005°05'712.9
2018-Feb-18 00:00N 54°25' W 005°02'613.0
2018-Feb-17 23:30N 54°19' W 004°59'612.6
2018-Feb-17 23:00N 54°13' W 004°57'5410.7
2018-Feb-17 17:56N 53°36' W 003°48'512.5
2018-Feb-17 17:30N 53°34' W 003°40'713.1
2018-Feb-17 17:00N 53°33' W 003°29'713.2
2018-Feb-17 16:30N 53°32' W 003°18'510.0
2018-Feb-17 16:00N 53°32' W 003°10'713.8
2018-Feb-17 15:30N 53°27' W 003°02'0 0.6
2018-Feb-17 15:00N 53°27' W 003°01'0 0.7
2018-Feb-17 14:30N 53°27' W 003°01'0 0.6
2018-Feb-17 14:00N 53°28' W 003°01'0 0.0
2018-Feb-17 13:28N 53°28' W 003°01'0 0.0
2018-Feb-17 12:58N 53°28' W 003°02'0 0.0
2018-Feb-17 12:28N 53°28' W 003°02'0 0.0
2018-Feb-17 11:58N 53°28' W 003°02'0 0.0
2018-Feb-17 11:28N 53°28' W 003°01'0 0.0
2018-Feb-17 10:58N 53°28' W 003°01'0 0.0
2018-Feb-17 10:28N 53°28' W 003°01'0 0.0
2018-Feb-17 09:55N 53°28' W 003°01'0 0.0
2018-Feb-17 09:28N 53°28' W 003°01'0 0.0
2018-Feb-17 08:58N 53°28' W 003°02'0 0.0
2018-Feb-17 08:28N 53°28' W 003°02'0 0.0
2018-Feb-17 07:58N 53°28' W 003°02'0 0.0
2018-Feb-17 07:28N 53°28' W 003°02'0 0.0
2018-Feb-17 06:58N 53°28' W 003°02'0 0.0
2018-Feb-17 06:28N 53°28' W 003°02'0 0.0
2018-Feb-17 05:52N 53°28' W 003°01'0 0.0
2018-Feb-17 05:28N 53°28' W 003°01'0 0.0
2018-Feb-17 04:55N 53°28' W 003°01'0 0.0
2018-Feb-17 04:28N 53°28' W 003°02'0 0.0
2018-Feb-17 03:58N 53°28' W 003°01'0 0.0
2018-Feb-17 03:28N 53°28' W 003°02'0 0.0
2018-Feb-17 02:58N 53°28' W 003°01'0 0.0
2018-Feb-17 02:28N 53°28' W 003°02'0 0.0
2018-Feb-17 01:58N 53°28' W 003°02'0 0.0
2018-Feb-17 01:25N 53°28' W 003°02'0 0.0
2018-Feb-17 00:52N 53°28' W 003°02'0 0.0
2018-Feb-17 00:28N 53°28' W 003°02'0 0.0
2018-Feb-16 23:58N 53°28' W 003°02'0 0.0
2018-Feb-16 23:28N 53°28' W 003°02'0 0.0
2018-Feb-16 22:55N 53°28' W 003°02'0 0.0
2018-Feb-16 22:28N 53°28' W 003°01'0 0.0
2018-Feb-16 21:58N 53°28' W 003°01'0 0.0
2018-Feb-16 21:28N 53°28' W 003°01'0 0.0
2018-Feb-16 20:58N 53°28' W 003°02'0 0.0
2018-Feb-16 20:28N 53°28' W 003°01'0 0.0
2018-Feb-16 19:58N 53°28' W 003°02'0 0.0
2018-Feb-16 19:28N 53°28' W 003°02'0 0.0
2018-Feb-16 18:58N 53°28' W 003°02'0 0.0
2018-Feb-16 18:28N 53°28' W 003°02'0 0.0
2018-Feb-16 17:58N 53°28' W 003°01'0 0.0
2018-Feb-16 17:28N 53°28' W 003°02'0 0.0
2018-Feb-16 16:58N 53°28' W 003°01'0 0.0
2018-Feb-16 16:19N 53°28' W 003°02'0 0.0
2018-Feb-16 15:58N 53°28' W 003°01'0 0.0
2018-Feb-16 15:28N 53°28' W 003°02'0 0.0
2018-Feb-16 14:58N 53°28' W 003°02'0 0.0
2018-Feb-16 14:28N 53°28' W 003°02'0 0.0
2018-Feb-16 13:58N 53°28' W 003°02'0 0.0
2018-Feb-16 13:29N 53°28' W 003°02'0 0.8
2018-Feb-16 13:00N 53°27' W 003°01'0 0.4
2018-Feb-16 12:29N 53°27' W 003°01'0 0.4
2018-Feb-16 12:00N 53°27' W 003°01'0 0.5
2018-Feb-16 11:30N 53°27' W 003°02'3 6.3
2018-Feb-16 10:59N 53°29' W 003°05'611.6
2018-Feb-16 10:30N 53°31' W 003°14'4 8.9
2018-Feb-16 10:01N 53°32' W 003°21'3 6.2
2018-Feb-16 09:30N 53°31' W 003°27'4 8.7
2018-Feb-16 09:00N 53°31' W 003°34'510.2
2018-Feb-16 08:30N 53°30' W 003°43'510.4
2018-Feb-16 08:00N 53°28' W 003°50'172 6.7
2018-Feb-15 06:22N 50°53' W 005°53'2515.3
2018-Feb-15 04:44N 50°28' W 005°54'415.3
2018-Feb-15 04:30N 50°24' W 005°54'815.7
2018-Feb-15 04:00N 50°17' W 005°54'10715.6
2018-Feb-14 21:10N 48°30' W 005°58'314.6
2018-Feb-14 20:58N 48°27' W 005°56'714.5
2018-Feb-14 20:29N 48°21' W 005°52'714.2
2018-Feb-14 20:00N 48°14' W 005°49'814.2
2018-Feb-14 19:28N 48°07' W 005°45'2414.1
2018-Feb-14 17:45N 47°45' W 005°31'25714.2
2018-Feb-13 23:36N 43°45' W 003°19'213.8
2018-Feb-13 23:30N 43°43' W 003°18'713.7
2018-Feb-13 22:59N 43°37' W 003°15'613.2
2018-Feb-13 22:30N 43°31' W 003°11'713.4
2018-Feb-13 22:00N 43°25' W 003°06'510.2
2018-Feb-13 21:30N 43°21' W 003°03'0 0.6
2018-Feb-13 20:57N 43°21' W 003°03'0 0.0
2018-Feb-13 20:30N 43°21' W 003°03'0 0.0
2018-Feb-13 19:57N 43°21' W 003°03'0 0.0
2018-Feb-13 19:30N 43°21' W 003°03'0 0.0
2018-Feb-13 19:00N 43°21' W 003°03'0 0.0
2018-Feb-13 18:30N 43°21' W 003°03'0 0.0
2018-Feb-13 18:00N 43°21' W 003°03'0 0.0
2018-Feb-13 17:30N 43°21' W 003°03'0 0.0
2018-Feb-13 17:00N 43°21' W 003°03'0 0.0
2018-Feb-13 16:30N 43°21' W 003°03'0 0.0
2018-Feb-13 16:00N 43°21' W 003°03'0 0.0
2018-Feb-13 15:30N 43°21' W 003°03'0 0.0
2018-Feb-13 14:57N 43°21' W 003°03'0 0.0
2018-Feb-13 14:27N 43°21' W 003°03'0 0.0
2018-Feb-13 14:00N 43°21' W 003°03'0 0.0
2018-Feb-13 13:30N 43°21' W 003°03'0 0.0
2018-Feb-13 13:00N 43°21' W 003°03'0 0.0
2018-Feb-13 12:30N 43°21' W 003°03'0 0.0
2018-Feb-13 12:00N 43°21' W 003°03'0 0.0
2018-Feb-13 11:30N 43°21' W 003°03'0 0.0
2018-Feb-13 11:00N 43°21' W 003°03'0 0.0
2018-Feb-13 10:27N 43°21' W 003°03'0 0.0
2018-Feb-13 10:00N 43°21' W 003°03'0 0.0
2018-Feb-13 09:30N 43°21' W 003°03'0 0.0
2018-Feb-13 09:00N 43°21' W 003°03'0 0.0
2018-Feb-13 08:30N 43°21' W 003°03'0 0.0
2018-Feb-13 08:00N 43°21' W 003°03'0 0.0
2018-Feb-13 07:30N 43°21' W 003°03'0 0.0
2018-Feb-13 07:00N 43°21' W 003°03'0 0.0
2018-Feb-13 06:29N 43°21' W 003°03'0 0.0
2018-Feb-13 05:59N 43°21' W 003°03'0 0.0
2018-Feb-13 05:29N 43°21' W 003°03'0 0.0
2018-Feb-13 04:59N 43°21' W 003°03'0 0.0
2018-Feb-13 04:29N 43°21' W 003°03'0 0.0
2018-Feb-13 03:59N 43°21' W 003°03'0 0.0
2018-Feb-13 03:29N 43°21' W 003°03'0 0.0
2018-Feb-13 02:59N 43°21' W 003°03'0 0.0
2018-Feb-13 02:29N 43°21' W 003°03'1 1.2
2018-Feb-13 02:00N 43°21' W 003°03'510.0
2018-Feb-13 01:30N 43°26' W 003°06'914.1
2018-Feb-13 00:54N 43°34' W 003°10'614.2
2018-Feb-13 00:30N 43°39' W 003°13'26814.6
2018-Feb-12 06:05N 47°48' W 005°34'215.2
2018-Feb-12 05:58N 47°50' W 005°36'1415.3
2018-Feb-12 05:04N 48°03' W 005°43'515.1
2018-Feb-12 04:46N 48°07' W 005°45'615.1
2018-Feb-12 04:23N 48°13' W 005°48'  

Dump ship's entire track history